Time;durP1;ratioP1;P1;durP2;ratioP2;P2;SDS_P1;SDS_P2;PMS_P1;PMS_P2;Temp;Humidity;BMP_temperature;BMP_pressure;BME280_temperature;BME280_humidity;BME280_pressure;Samples;Min_cycle;Max_cycle;Signal;HPM_P1;HPM_P2
2022/07/06 08:16:57;;;;;;;;;;;15.00;97.60;;;;;;4979631;28;20487;-66
2022/07/06 08:19:24;;;;;;;;;;;15.00;97.70;;;;;;4991683;28;20379;-67
2022/07/06 08:21:50;;;;;;;;;;;14.90;97.70;;;;;;4991186;28;19916;-67
2022/07/06 08:24:17;;;;;;;;;;;14.90;97.60;;;;;;4981918;28;19957;-66
2022/07/06 08:26:44;;;;;;;;;;;14.80;97.60;;;;;;4985072;28;20395;-67
2022/07/06 08:29:10;;;;;;;;;;;14.90;97.60;;;;;;4986593;28;19964;-67
2022/07/06 08:31:37;;;;;;;;;;;14.90;97.70;;;;;;4970455;28;19956;-66
2022/07/06 08:34:03;;;;;;;;;;;14.90;97.70;;;;;;4987105;28;19914;-67
2022/07/06 08:36:30;;;;;;;;;;;14.90;97.80;;;;;;4989845;28;19933;-65
2022/07/06 08:38:57;;;;;;;;;;;15.00;97.80;;;;;;4992139;28;19929;-68
2022/07/06 08:41:24;;;;;;;;;;;15.00;97.70;;;;;;4988055;28;19914;-66
2022/07/06 08:43:51;;;;;;;;;;;15.00;97.80;;;;;;4989392;28;19905;-68
2022/07/06 08:46:17;;;;;;;;;;;15.00;97.70;;;;;;4977081;28;20245;-67
2022/07/06 08:48:44;;;;;;;;;;;15.00;97.70;;;;;;4986421;28;20599;-66
2022/07/06 08:51:12;;;;;;;;;;;15.00;97.60;;;;;;4989524;28;20008;-67
2022/07/06 08:53:39;;;;;;;;;;;15.00;97.60;;;;;;4978635;28;20360;-67
2022/07/06 08:56:06;;;;;;;;;;;15.00;97.60;;;;;;4982009;28;19944;-67
2022/07/06 08:58:33;;;;;;;;;;;15.00;97.70;;;;;;4989792;28;19918;-64
2022/07/06 09:01:00;;;;;;;;;;;15.00;97.80;;;;;;4992385;28;20367;-65
2022/07/06 09:03:27;;;;;;;;;;;15.00;97.80;;;;;;4984754;28;19914;-66
2022/07/06 09:05:54;;;;;;;;;;;15.00;97.90;;;;;;4984462;28;20442;-68
2022/07/06 09:08:20;;;;;;;;;;;15.00;98.00;;;;;;4964917;28;20008;-68
2022/07/06 09:10:47;;;;;;;;;;;14.90;98.10;;;;;;4986762;28;19993;-71
2022/07/06 09:13:14;;;;;;;;;;;15.00;98.00;;;;;;4979633;28;19909;-67
2022/07/06 09:15:40;;;;;;;;;;;14.90;98.00;;;;;;4987532;28;20252;-68
2022/07/06 09:18:07;;;;;;;;;;;14.90;98.00;;;;;;4992902;28;20442;-68
2022/07/06 09:20:34;;;;;;;;;;;14.90;98.00;;;;;;4987599;28;19914;-68
2022/07/06 09:23:01;;;;;;;;;;;14.90;98.00;;;;;;4982207;28;19952;-67
2022/07/06 09:25:28;;;;;;;;;;;15.00;97.90;;;;;;4988601;28;19921;-67
2022/07/06 09:27:56;;;;;;;;;;;14.90;97.90;;;;;;4986003;28;19941;-68
2022/07/06 09:30:23;;;;;;;;;;;14.90;97.90;;;;;;4965816;28;20357;-66
2022/07/06 09:32:50;;;;;;;;;;;14.90;97.70;;;;;;4997598;28;19920;-67
2022/07/06 09:35:23;;;;;;;;;;;14.90;97.70;;;;;;4996560;28;20323;-66
2022/07/06 09:38:12;;;;;;;;;;;14.90;97.70;;;;;;4997967;28;19909;-66
2022/07/06 09:40:40;;;;;;;;;;;14.90;97.80;;;;;;4974889;28;19909;-66
2022/07/06 09:43:09;;;;;;;;;;;15.00;97.90;;;;;;4992336;28;20347;-65
2022/07/06 09:45:36;;;;;;;;;;;15.00;98.00;;;;;;4983898;28;19917;-66
2022/07/06 09:48:09;;;;;;;;;;;15.00;98.00;;;;;;4970993;28;19913;-66
2022/07/06 09:50:43;;;;;;;;;;;15.00;97.90;;;;;;4991700;28;20337;-65
2022/07/06 09:53:10;;;;;;;;;;;15.00;97.80;;;;;;4986674;28;19913;-65
2022/07/06 09:55:37;;;;;;;;;;;15.00;97.80;;;;;;4993545;28;20670;-66
2022/07/06 09:58:04;;;;;;;;;;;15.00;97.90;;;;;;5004327;28;19914;-66
2022/07/06 10:00:30;;;;;;;;;;;15.00;97.90;;;;;;4988010;28;19964;-70
2022/07/06 10:02:57;;;;;;;;;;;15.00;97.90;;;;;;4976548;28;20680;-69
2022/07/06 10:05:29;;;;;;;;;;;14.90;98.00;;;;;;4949912;28;19934;-68
2022/07/06 10:07:56;;;;;;;;;;;15.00;98.10;;;;;;4986620;28;20344;-64
2022/07/06 10:10:25;;;;;;;;;;;15.00;98.10;;;;;;4978248;28;19925;-66
2022/07/06 10:12:51;;;;;;;;;;;15.00;98.20;;;;;;4991450;28;20402;-66
2022/07/06 10:15:18;;;;;;;;;;;15.00;98.20;;;;;;4974946;28;20008;-66
2022/07/06 10:17:44;;;;;;;;;;;15.00;98.30;;;;;;4977179;28;19921;-67
2022/07/06 10:20:11;;;;;;;;;;;15.10;98.30;;;;;;4975445;28;20283;-67
2022/07/06 10:22:38;;;;;;;;;;;15.10;98.40;;;;;;4997154;28;19910;-66
2022/07/06 10:25:04;;;;;;;;;;;15.10;98.40;;;;;;4989179;28;19933;-66
2022/07/06 10:27:31;;;;;;;;;;;15.10;98.40;;;;;;4977610;28;20347;-65
2022/07/06 10:29:58;;;;;;;;;;;15.10;98.50;;;;;;4971930;28;19925;-65
2022/07/06 10:32:24;;;;;;;;;;;15.10;98.50;;;;;;5004066;28;20215;-65
2022/07/06 10:34:51;;;;;;;;;;;15.10;98.60;;;;;;4995149;28;19918;-66
2022/07/06 10:37:27;;;;;;;;;;;15.10;98.60;;;;;;4982121;28;19964;-64
2022/07/06 10:42:58;;;;;;;;;;;15.10;98.70;;;;;;4941253;29;19914;-64
2022/07/06 10:45:28;;;;;;;;;;;15.00;98.70;;;;;;4946612;28;19918;-64
2022/07/06 10:48:13;;;;;;;;;;;15.00;98.80;;;;;;4977310;28;20064;-64
2022/07/06 10:50:40;;;;;;;;;;;15.00;98.80;;;;;;4997397;28;19917;-64
2022/07/06 10:53:13;;;;;;;;;;;15.00;98.80;;;;;;4996312;28;19909;-64
2022/07/06 10:55:40;;;;;;;;;;;15.00;98.80;;;;;;4989519;28;19960;-66
2022/07/06 10:58:07;;;;;;;;;;;15.00;98.90;;;;;;4972962;28;19913;-65
2022/07/06 11:00:48;;;;;;;;;;;15.00;98.90;;;;;;4971905;28;19960;-66
2022/07/06 11:03:33;;;;;;;;;;;15.00;98.90;;;;;;4988458;28;19909;-67
2022/07/06 11:06:00;;;;;;;;;;;15.00;99.00;;;;;;4994561;28;20355;-66
2022/07/06 11:08:43;;;;;;;;;;;15.00;99.00;;;;;;4979562;28;19930;-66
2022/07/06 11:11:12;;;;;;;;;;;15.00;99.00;;;;;;4979643;28;19913;-65
2022/07/06 11:13:52;;;;;;;;;;;15.00;99.10;;;;;;4991507;28;20446;-65
2022/07/06 11:16:18;;;;;;;;;;;15.00;99.10;;;;;;4993748;28;19918;-65
2022/07/06 11:18:49;;;;;;;;;;;15.10;99.10;;;;;;4992272;28;19914;-66
2022/07/06 11:21:19;;;;;;;;;;;15.00;99.10;;;;;;4984213;28;19980;-66
2022/07/06 11:23:47;;;;;;;;;;;15.10;99.10;;;;;;4973235;28;20378;-65
2022/07/06 11:26:13;;;;;;;;;;;15.00;99.10;;;;;;4998731;28;19945;-65
2022/07/06 11:28:40;;;;;;;;;;;15.00;99.10;;;;;;4997439;28;19924;-66
2022/07/06 11:31:06;;;;;;;;;;;15.00;99.10;;;;;;4969904;28;19996;-69
2022/07/06 11:33:33;;;;;;;;;;;15.00;99.20;;;;;;4977521;28;19987;-65
2022/07/06 11:36:12;;;;;;;;;;;15.00;99.20;;;;;;4990942;28;19917;-65
2022/07/06 11:38:39;;;;;;;;;;;15.00;99.20;;;;;;4989868;28;19967;-64
2022/07/06 11:41:06;;;;;;;;;;;15.00;99.20;;;;;;4985627;28;19921;-64
2022/07/06 11:43:33;;;;;;;;;;;15.00;99.20;;;;;;4995783;28;19945;-66
2022/07/06 11:45:59;;;;;;;;;;;15.00;99.20;;;;;;4990296;28;19913;-66
2022/07/06 11:48:26;;;;;;;;;;;15.00;99.20;;;;;;4969914;28;19925;-66
2022/07/06 11:51:02;;;;;;;;;;;15.00;99.20;;;;;;4994626;28;19948;-67
2022/07/06 11:53:28;;;;;;;;;;;15.00;99.20;;;;;;5008257;28;19909;-65
2022/07/06 11:55:55;;;;;;;;;;;15.00;99.20;;;;;;4998911;28;19933;-66
2022/07/06 11:58:22;;;;;;;;;;;15.00;99.30;;;;;;4999392;28;19909;-66
2022/07/06 12:01:08;;;;;;;;;;;15.00;99.30;;;;;;4994479;28;20000;-66
2022/07/06 12:03:35;;;;;;;;;;;15.00;99.30;;;;;;4998481;28;19961;-66
2022/07/06 12:06:05;;;;;;;;;;;15.00;99.30;;;;;;5003361;28;19953;-66
2022/07/06 12:08:33;;;;;;;;;;;15.00;99.30;;;;;;4995787;28;19963;-66
2022/07/06 12:11:00;;;;;;;;;;;14.90;99.30;;;;;;4997387;28;20540;-66
2022/07/06 12:13:26;;;;;;;;;;;14.90;99.30;;;;;;4995564;28;19956;-66
2022/07/06 12:15:53;;;;;;;;;;;14.90;99.30;;;;;;4972861;28;19988;-66
2022/07/06 12:18:19;;;;;;;;;;;14.90;99.30;;;;;;5005257;28;19914;-67
2022/07/06 12:20:46;;;;;;;;;;;14.90;99.30;;;;;;5003966;28;20027;-66
2022/07/06 12:23:13;;;;;;;;;;;14.80;99.30;;;;;;4975832;28;20311;-66
2022/07/06 12:25:39;;;;;;;;;;;14.80;99.30;;;;;;4989881;28;20284;-66
2022/07/06 12:28:07;;;;;;;;;;;14.80;99.30;;;;;;4991234;28;19921;-66
2022/07/06 12:30:34;;;;;;;;;;;14.80;99.30;;;;;;4991049;28;19925;-66
2022/07/06 12:33:17;;;;;;;;;;;14.80;99.30;;;;;;4995731;28;19917;-66
2022/07/06 12:35:43;;;;;;;;;;;14.80;99.30;;;;;;4989976;28;20478;-67
2022/07/06 12:38:10;;;;;;;;;;;14.80;99.30;;;;;;4994016;28;20376;-66
2022/07/06 12:40:37;;;;;;;;;;;14.70;99.30;;;;;;4996305;28;19955;-66
2022/07/06 12:43:03;;;;;;;;;;;14.70;99.30;;;;;;5003438;28;20260;-66
2022/07/06 12:45:30;;;;;;;;;;;14.70;99.30;;;;;;5008096;28;19914;-65
2022/07/06 12:47:59;;;;;;;;;;;14.60;99.30;;;;;;5003869;28;19992;-66
2022/07/06 12:50:35;;;;;;;;;;;14.60;99.30;;;;;;5005272;28;19914;-66
2022/07/06 12:53:02;;;;;;;;;;;14.60;99.30;;;;;;5005365;28;19971;-66
2022/07/06 12:55:29;;;;;;;;;;;14.60;99.30;;;;;;4973471;28;19910;-66
2022/07/06 12:57:56;;;;;;;;;;;14.60;99.30;;;;;;4987288;28;20350;-66
2022/07/06 13:00:22;;;;;;;;;;;14.50;99.30;;;;;;4989422;28;19914;-66
2022/07/06 13:02:53;;;;;;;;;;;14.50;99.30;;;;;;4992902;28;19996;-66
2022/07/06 13:05:30;;;;;;;;;;;14.50;99.30;;;;;;4989973;28;20000;-66
2022/07/06 13:07:57;;;;;;;;;;;14.50;99.30;;;;;;4991263;28;20463;-66
2022/07/06 13:10:25;;;;;;;;;;;14.40;99.30;;;;;;4991941;28;19924;-66
2022/07/06 13:12:52;;;;;;;;;;;14.40;99.30;;;;;;4990761;28;19918;-66
2022/07/06 13:15:19;;;;;;;;;;;14.40;99.30;;;;;;4991882;28;20368;-66
2022/07/06 13:17:45;;;;;;;;;;;14.40;99.30;;;;;;4989732;28;20295;-66
2022/07/06 13:20:13;;;;;;;;;;;14.40;99.40;;;;;;4990102;28;19917;-66
2022/07/06 13:22:39;;;;;;;;;;;14.40;99.30;;;;;;4993949;28;19917;-66
2022/07/06 13:25:06;;;;;;;;;;;14.40;99.30;;;;;;4991898;28;19906;-66
2022/07/06 13:27:33;;;;;;;;;;;14.50;99.30;;;;;;4986349;28;20372;-66
2022/07/06 13:29:59;;;;;;;;;;;14.50;99.30;;;;;;4986612;28;19918;-66
2022/07/06 13:32:26;;;;;;;;;;;14.40;99.40;;;;;;4997083;28;19909;-66
2022/07/06 13:34:52;;;;;;;;;;;14.40;99.40;;;;;;5010260;28;19917;-66
2022/07/06 13:37:20;;;;;;;;;;;14.50;99.40;;;;;;4991865;28;19964;-66
2022/07/06 13:39:47;;;;;;;;;;;14.50;99.40;;;;;;4978930;28;19956;-66
2022/07/06 13:42:13;;;;;;;;;;;14.40;99.40;;;;;;4989912;28;19913;-65
2022/07/06 13:44:40;;;;;;;;;;;14.40;99.30;;;;;;5001618;28;20278;-66
2022/07/06 13:47:07;;;;;;;;;;;14.40;99.40;;;;;;4977982;28;20006;-65
2022/07/06 13:49:33;;;;;;;;;;;14.40;99.40;;;;;;5002041;28;19917;-66
2022/07/06 13:52:03;;;;;;;;;;;14.40;99.40;;;;;;4997229;28;19920;-66
2022/07/06 13:54:30;;;;;;;;;;;14.40;99.40;;;;;;4995134;28;19905;-66
2022/07/06 13:56:56;;;;;;;;;;;14.40;99.40;;;;;;4994977;28;20044;-66
2022/07/06 13:59:23;;;;;;;;;;;14.40;99.40;;;;;;4997046;28;19960;-66
2022/07/06 14:01:50;;;;;;;;;;;14.50;99.40;;;;;;4994512;28;19913;-66
2022/07/06 14:04:16;;;;;;;;;;;14.40;99.40;;;;;;4990754;28;20008;-66
2022/07/06 14:06:43;;;;;;;;;;;14.40;99.40;;;;;;4986155;28;19910;-66
2022/07/06 14:09:09;;;;;;;;;;;14.40;99.40;;;;;;4999703;28;19918;-66
2022/07/06 14:11:36;;;;;;;;;;;14.40;99.40;;;;;;5001798;28;20347;-66
2022/07/06 14:14:03;;;;;;;;;;;14.40;99.40;;;;;;5002643;28;19906;-66
2022/07/06 14:16:29;;;;;;;;;;;14.40;99.40;;;;;;5004549;28;19917;-66
2022/07/06 14:18:56;;;;;;;;;;;14.40;99.40;;;;;;5003661;28;20859;-65
2022/07/06 14:30:10;;;;;;;;;;;14.30;99.40;;;;;;4968336;28;20347;-66
2022/07/06 14:32:36;;;;;;;;;;;14.30;99.40;;;;;;4976763;28;19957;-66
2022/07/06 14:35:03;;;;;;;;;;;14.30;99.40;;;;;;4974785;28;19910;-66
2022/07/06 14:37:30;;;;;;;;;;;14.30;99.40;;;;;;4975652;28;19910;-66
2022/07/06 14:39:56;;;;;;;;;;;14.30;99.40;;;;;;4971169;28;19921;-66
2022/07/06 14:42:23;;;;;;;;;;;14.30;99.40;;;;;;4978687;28;19957;-66
2022/07/06 14:44:51;;;;;;;;;;;14.30;99.40;;;;;;4975444;28;19910;-66
2022/07/06 14:47:17;;;;;;;;;;;14.30;99.40;;;;;;4969062;28;20312;-66
2022/07/06 14:49:44;;;;;;;;;;;14.30;99.40;;;;;;4975390;28;20352;-65
2022/07/06 14:52:10;;;;;;;;;;;14.30;99.40;;;;;;4976168;28;19958;-66
2022/07/06 14:54:37;;;;;;;;;;;14.30;99.40;;;;;;4974443;28;19953;-66
2022/07/06 14:57:04;;;;;;;;;;;14.30;99.40;;;;;;4980561;28;19918;-66
2022/07/06 14:59:31;;;;;;;;;;;14.30;99.40;;;;;;4968485;28;19959;-66
2022/07/06 15:01:57;;;;;;;;;;;14.40;99.40;;;;;;4980026;28;20023;-65
2022/07/06 15:04:24;;;;;;;;;;;14.30;99.40;;;;;;4979783;28;19917;-66
2022/07/06 15:06:50;;;;;;;;;;;14.30;99.50;;;;;;4977631;28;19918;-66
2022/07/06 15:09:17;;;;;;;;;;;14.30;99.40;;;;;;4974616;28;19922;-66
2022/07/06 15:11:47;;;;;;;;;;;14.30;99.40;;;;;;4964425;28;19929;-66
2022/07/06 15:14:15;;;;;;;;;;;14.30;99.50;;;;;;4972224;28;19918;-66
2022/07/06 15:16:43;;;;;;;;;;;14.30;99.40;;;;;;4983774;28;19916;-66
2022/07/06 15:19:10;;;;;;;;;;;14.40;99.50;;;;;;4988417;28;20576;-65
2022/07/06 15:21:37;;;;;;;;;;;14.40;99.40;;;;;;4977904;28;19932;-66
2022/07/06 15:24:04;;;;;;;;;;;14.30;99.40;;;;;;4982301;28;20320;-67
2022/07/06 15:26:31;;;;;;;;;;;14.40;99.50;;;;;;4988353;28;19925;-67
2022/07/06 15:28:58;;;;;;;;;;;14.40;99.40;;;;;;4973443;28;19928;-67
2022/07/06 15:31:25;;;;;;;;;;;14.30;99.40;;;;;;5002491;28;20016;-67
2022/07/06 15:33:51;;;;;;;;;;;14.30;99.40;;;;;;4996514;28;19929;-67
2022/07/06 15:36:18;;;;;;;;;;;14.30;99.40;;;;;;4985415;28;19918;-67
2022/07/06 15:38:44;;;;;;;;;;;14.30;99.40;;;;;;4997908;28;20339;-67
2022/07/06 15:41:11;;;;;;;;;;;14.30;99.40;;;;;;5000725;28;19917;-67
2022/07/06 15:43:37;;;;;;;;;;;14.30;99.50;;;;;;5002128;28;20379;-67
2022/07/06 15:46:04;;;;;;;;;;;14.30;99.50;;;;;;4997095;28;20371;-67
2022/07/06 15:48:31;;;;;;;;;;;14.30;99.40;;;;;;4996617;28;19909;-66
2022/07/06 15:50:57;;;;;;;;;;;14.30;99.50;;;;;;4992173;28;19924;-67
2022/07/06 15:53:24;;;;;;;;;;;14.30;99.40;;;;;;5003725;28;19944;-67
2022/07/06 15:55:51;;;;;;;;;;;14.30;99.50;;;;;;4978030;28;19916;-67
2022/07/06 15:58:17;;;;;;;;;;;14.30;99.50;;;;;;5000727;28;19960;-67
2022/07/06 16:00:44;;;;;;;;;;;14.40;99.50;;;;;;5000888;28;19921;-67
2022/07/06 16:03:10;;;;;;;;;;;14.30;99.40;;;;;;4997332;28;20654;-67
2022/07/06 16:05:37;;;;;;;;;;;14.30;99.50;;;;;;4994942;28;20418;-67
2022/07/06 16:08:04;;;;;;;;;;;14.30;99.40;;;;;;4998376;28;19909;-67
2022/07/06 16:10:30;;;;;;;;;;;14.30;99.40;;;;;;4975227;28;20550;-67
2022/07/06 16:12:57;;;;;;;;;;;14.30;99.50;;;;;;4977916;28;20446;-67
2022/07/06 16:15:23;;;;;;;;;;;14.20;99.40;;;;;;5000693;28;19920;-67
2022/07/06 16:17:51;;;;;;;;;;;14.20;99.40;;;;;;4984300;28;19914;-67
2022/07/06 16:20:17;;;;;;;;;;;14.20;99.50;;;;;;4999511;28;20016;-68
2022/07/06 16:22:44;;;;;;;;;;;14.30;99.50;;;;;;4996240;28;19924;-67
2022/07/06 16:25:11;;;;;;;;;;;14.30;99.50;;;;;;4996970;28;19917;-67
2022/07/06 16:27:37;;;;;;;;;;;14.30;99.50;;;;;;4997599;28;19982;-67
2022/07/06 16:30:04;;;;;;;;;;;14.30;99.50;;;;;;5004498;28;19940;-67
2022/07/06 16:32:31;;;;;;;;;;;14.30;99.40;;;;;;5003294;28;19909;-66
2022/07/06 16:34:57;;;;;;;;;;;14.30;99.50;;;;;;4993705;28;19921;-66
2022/07/06 16:37:24;;;;;;;;;;;14.30;99.50;;;;;;4996967;28;19917;-67
2022/07/06 16:39:50;;;;;;;;;;;14.30;99.50;;;;;;4990981;28;20005;-67
2022/07/06 16:42:19;;;;;;;;;;;14.30;99.50;;;;;;4994225;28;19910;-67
2022/07/06 16:44:46;;;;;;;;;;;14.20;99.50;;;;;;4988217;28;19914;-66
2022/07/06 16:47:13;;;;;;;;;;;14.30;99.50;;;;;;4998342;28;19914;-66
2022/07/06 16:49:40;;;;;;;;;;;14.20;99.40;;;;;;4998702;28;19979;-66
2022/07/06 16:52:06;;;;;;;;;;;14.20;99.40;;;;;;4995095;28;19937;-67
2022/07/06 16:54:33;;;;;;;;;;;14.20;99.50;;;;;;4991526;28;19910;-66
2022/07/06 16:56:59;;;;;;;;;;;14.20;99.50;;;;;;4992641;28;19971;-66
2022/07/06 16:59:28;;;;;;;;;;;14.20;99.40;;;;;;4997122;28;19920;-66
2022/07/06 17:01:55;;;;;;;;;;;14.20;99.50;;;;;;4999574;28;19920;-65
2022/07/06 17:04:22;;;;;;;;;;;14.20;99.50;;;;;;4989997;28;19956;-65
2022/07/06 17:06:48;;;;;;;;;;;14.20;99.40;;;;;;5000738;28;19909;-66
2022/07/06 17:09:15;;;;;;;;;;;14.20;99.40;;;;;;5003076;28;19983;-65
2022/07/06 17:11:43;;;;;;;;;;;14.20;99.40;;;;;;5002907;28;19914;-66
2022/07/06 17:14:09;;;;;;;;;;;14.20;99.50;;;;;;5000796;28;19909;-66
2022/07/06 17:16:36;;;;;;;;;;;14.20;99.40;;;;;;5003660;28;19909;-66
2022/07/06 17:19:02;;;;;;;;;;;14.20;99.40;;;;;;4997204;28;20065;-66
2022/07/06 17:21:29;;;;;;;;;;;14.20;99.40;;;;;;4996024;28;19914;-66
2022/07/06 17:23:55;;;;;;;;;;;14.20;99.40;;;;;;4990073;28;20003;-66
2022/07/06 17:26:22;;;;;;;;;;;14.20;99.40;;;;;;4999073;28;19909;-66
2022/07/06 17:28:48;;;;;;;;;;;14.20;99.40;;;;;;4987657;28;19941;-67
2022/07/06 17:31:15;;;;;;;;;;;14.20;99.40;;;;;;5002478;28;19913;-66
2022/07/06 17:33:41;;;;;;;;;;;14.20;99.30;;;;;;4999459;28;19916;-66
2022/07/06 17:36:08;;;;;;;;;;;14.20;99.40;;;;;;4989788;28;20001;-66
2022/07/06 17:38:35;;;;;;;;;;;14.20;99.40;;;;;;4983890;28;19921;-66
2022/07/06 17:41:01;;;;;;;;;;;14.20;99.40;;;;;;4992932;28;19936;-66
2022/07/06 17:43:28;;;;;;;;;;;14.20;99.30;;;;;;4990506;28;19924;-66
2022/07/06 17:45:54;;;;;;;;;;;14.20;99.30;;;;;;4992499;28;19920;-66
2022/07/06 17:48:21;;;;;;;;;;;14.20;99.30;;;;;;4987615;28;20024;-66
2022/07/06 17:50:48;;;;;;;;;;;14.20;99.30;;;;;;5001019;28;20364;-66
2022/07/06 17:53:14;;;;;;;;;;;14.20;99.30;;;;;;5001087;28;19944;-66
2022/07/06 18:00:56;;;;;;;;;;;14.20;99.20;;;;;;4997533;28;19925;-66
2022/07/06 18:03:23;;;;;;;;;;;14.20;99.30;;;;;;4962314;28;19973;-66
2022/07/06 18:05:49;;;;;;;;;;;14.20;99.30;;;;;;4984567;28;19910;-66
2022/07/06 18:08:16;;;;;;;;;;;14.20;99.30;;;;;;4978330;28;19916;-65
2022/07/06 18:10:42;;;;;;;;;;;14.30;99.30;;;;;;4981691;28;20024;-66
2022/07/06 18:13:09;;;;;;;;;;;14.30;99.20;;;;;;4988216;28;19910;-66
2022/07/06 18:15:35;;;;;;;;;;;14.30;99.20;;;;;;4982680;28;19910;-66
2022/07/06 18:18:02;;;;;;;;;;;14.30;99.30;;;;;;4988848;28;19906;-66
2022/07/06 18:20:29;;;;;;;;;;;14.30;99.20;;;;;;4980715;28;19916;-66
2022/07/06 18:22:55;;;;;;;;;;;14.20;99.20;;;;;;4983556;28;19964;-66
2022/07/06 18:25:22;;;;;;;;;;;14.20;99.20;;;;;;4977648;28;19910;-66
2022/07/06 18:27:48;;;;;;;;;;;14.20;99.20;;;;;;4978249;28;19909;-67
2022/07/06 18:30:15;;;;;;;;;;;14.20;99.20;;;;;;4986708;28;19917;-66
2022/07/06 18:32:41;;;;;;;;;;;14.20;99.20;;;;;;4964571;28;19917;-66
2022/07/06 18:35:09;;;;;;;;;;;14.20;99.20;;;;;;4983276;28;19913;-66
2022/07/06 18:37:36;;;;;;;;;;;14.20;99.20;;;;;;4974290;28;19918;-65
2022/07/06 18:40:03;;;;;;;;;;;14.20;99.20;;;;;;4972368;28;19910;-66
2022/07/06 18:42:29;;;;;;;;;;;14.20;99.20;;;;;;4975581;28;19940;-66
2022/07/06 18:44:56;;;;;;;;;;;14.20;99.20;;;;;;4988750;28;19913;-66
2022/07/06 18:47:24;;;;;;;;;;;14.20;99.20;;;;;;4972469;28;19960;-66
2022/07/06 18:49:52;;;;;;;;;;;14.20;99.20;;;;;;4974692;28;19977;-66
2022/07/06 18:52:19;;;;;;;;;;;14.20;99.10;;;;;;4970936;28;20558;-66
2022/07/06 18:54:45;;;;;;;;;;;14.10;99.10;;;;;;4978393;28;19910;-66
2022/07/06 18:57:12;;;;;;;;;;;14.10;99.10;;;;;;4973283;28;19956;-65
2022/07/06 18:59:38;;;;;;;;;;;14.10;99.10;;;;;;4975456;28;19948;-67
2022/07/06 19:02:05;;;;;;;;;;;14.10;99.10;;;;;;4984250;28;19949;-68
2022/07/06 19:04:32;;;;;;;;;;;14.10;99.10;;;;;;5000255;28;19909;-67
2022/07/06 19:06:58;;;;;;;;;;;14.10;99.10;;;;;;4999302;28;19910;-67
2022/07/06 19:09:25;;;;;;;;;;;14.00;99.00;;;;;;5002887;28;19925;-68
2022/07/06 19:11:51;;;;;;;;;;;14.00;99.10;;;;;;5000834;28;19983;-68
2022/07/06 19:14:18;;;;;;;;;;;14.00;99.00;;;;;;4997089;28;19918;-67
2022/07/06 19:16:44;;;;;;;;;;;14.00;99.00;;;;;;5002160;28;19918;-67
2022/07/06 19:19:11;;;;;;;;;;;14.00;99.00;;;;;;5004481;28;19920;-68
2022/07/06 19:21:38;;;;;;;;;;;14.00;99.00;;;;;;4995373;28;19914;-68
2022/07/06 19:24:04;;;;;;;;;;;14.10;99.00;;;;;;4986788;28;20076;-68
2022/07/06 19:26:31;;;;;;;;;;;14.00;99.00;;;;;;4992803;28;19964;-68
2022/07/06 19:28:57;;;;;;;;;;;14.10;99.00;;;;;;4995351;28;20004;-68
2022/07/06 19:31:25;;;;;;;;;;;14.00;99.00;;;;;;5003140;28;19910;-67
2022/07/06 19:33:51;;;;;;;;;;;14.00;99.00;;;;;;4995969;28;19914;-68
2022/07/06 19:36:18;;;;;;;;;;;14.00;99.00;;;;;;4985738;28;19910;-68
2022/07/06 19:38:44;;;;;;;;;;;14.00;99.00;;;;;;4998450;28;19905;-68
2022/07/06 19:41:11;;;;;;;;;;;14.00;99.00;;;;;;4999296;28;19982;-68
2022/07/06 19:43:38;;;;;;;;;;;14.00;99.00;;;;;;4996601;28;19916;-68
2022/07/06 19:46:04;;;;;;;;;;;14.00;99.00;;;;;;4993965;28;19913;-67
2022/07/06 19:48:31;;;;;;;;;;;14.00;99.00;;;;;;4993277;28;19920;-65
2022/07/06 19:50:59;;;;;;;;;;;14.00;99.00;;;;;;4993037;28;19921;-67
2022/07/06 19:53:29;;;;;;;;;;;14.00;99.00;;;;;;5000732;28;19932;-70
2022/07/06 19:55:56;;;;;;;;;;;14.00;99.00;;;;;;5003560;28;19963;-67
2022/07/06 19:58:24;;;;;;;;;;;14.00;98.90;;;;;;4996917;28;19914;-67
2022/07/06 21:38:10;;;;;;;;;;;13.90;98.50;;;;;;4989437;28;20390;-66
2022/07/06 21:40:37;;;;;;;;;;;13.90;98.50;;;;;;4997101;28;20331;-66
2022/07/06 21:43:04;;;;;;;;;;;13.90;98.50;;;;;;5002845;28;19949;-66
2022/07/06 21:45:30;;;;;;;;;;;13.90;98.50;;;;;;4999607;28;20291;-66
2022/07/06 21:47:57;;;;;;;;;;;13.90;98.50;;;;;;4997356;28;19916;-66
2022/07/06 21:50:24;;;;;;;;;;;13.90;98.50;;;;;;4995041;28;19914;-66
2022/07/06 21:52:50;;;;;;;;;;;14.00;98.50;;;;;;5002919;28;19910;-66
2022/07/06 21:55:17;;;;;;;;;;;14.00;98.40;;;;;;4998139;28;19910;-66
2022/07/06 21:57:43;;;;;;;;;;;14.00;98.40;;;;;;5001758;28;19960;-66
2022/07/06 22:00:10;;;;;;;;;;;14.00;98.40;;;;;;4999906;28;19913;-67
2022/07/06 22:02:40;;;;;;;;;;;14.00;98.40;;;;;;5004780;28;19960;-67
2022/07/06 22:05:06;;;;;;;;;;;14.00;98.30;;;;;;4997438;28;19909;-68
2022/07/06 22:07:33;;;;;;;;;;;13.90;98.20;;;;;;4995255;28;19909;-67
2022/07/06 22:10:00;;;;;;;;;;;13.90;98.20;;;;;;4998199;28;20000;-66
2022/07/06 22:12:26;;;;;;;;;;;14.00;98.20;;;;;;4983287;28;19906;-66
2022/07/06 22:14:53;;;;;;;;;;;14.00;98.20;;;;;;4995455;28;20295;-66
2022/07/06 22:17:19;;;;;;;;;;;14.00;98.20;;;;;;5003353;28;20315;-67
2022/07/06 22:19:46;;;;;;;;;;;14.00;98.10;;;;;;4994651;28;19921;-67
2022/07/06 22:22:13;;;;;;;;;;;14.00;98.10;;;;;;4997283;28;19906;-66
2022/07/06 22:24:39;;;;;;;;;;;14.10;98.10;;;;;;4999911;28;19914;-66
2022/07/06 22:27:06;;;;;;;;;;;14.00;98.00;;;;;;5002116;28;19918;-67
2022/07/06 22:29:32;;;;;;;;;;;14.10;97.90;;;;;;4969050;28;20342;-66
2022/07/06 22:31:59;;;;;;;;;;;14.10;98.00;;;;;;4995042;28;19910;-66
2022/07/06 22:34:26;;;;;;;;;;;14.20;98.10;;;;;;4992267;28;19913;-65
